createdAt,value
2022-11-17T00:01:37.004Z,7.35
2022-11-17T00:04:04.499Z,7.58
2022-11-17T00:06:31.974Z,7.57
2022-11-17T00:09:00.775Z,7.50
2022-11-17T00:11:48.206Z,7.66
2022-11-17T00:14:32.946Z,7.64
2022-11-17T00:17:00.563Z,7.42
2022-11-17T00:20:00.015Z,7.38
2022-11-17T00:22:27.482Z,7.38
2022-11-17T00:24:56.261Z,7.40
2022-11-17T00:27:23.753Z,7.40
2022-11-17T00:29:51.275Z,7.26
2022-11-17T00:32:37.905Z,7.44
2022-11-17T00:35:06.367Z,7.41
2022-11-17T00:37:35.373Z,7.49
2022-11-17T00:40:04.561Z,7.16
2022-11-17T00:42:32.043Z,7.10
2022-11-17T00:44:59.496Z,7.32
2022-11-17T00:47:26.948Z,7.37
2022-11-17T00:49:54.417Z,7.28
2022-11-17T00:52:21.877Z,7.25
2022-11-17T00:54:49.326Z,6.96
2022-11-17T00:57:18.163Z,7.24
2022-11-17T00:59:45.631Z,7.34
2022-11-17T01:02:13.079Z,7.08
2022-11-17T01:04:40.558Z,7.01
2022-11-17T01:07:08.082Z,7.08
2022-11-17T01:09:35.572Z,6.99
2022-11-17T01:12:03.023Z,7.16
2022-11-17T01:14:32.613Z,7.06
2022-11-17T01:17:00.056Z,7.21
2022-11-17T01:19:27.531Z,6.90
2022-11-17T01:21:54.951Z,7.17
2022-11-17T01:24:22.470Z,7.20
2022-11-17T01:26:51.764Z,6.98
2022-11-17T01:29:19.227Z,6.90
2022-11-17T01:31:51.443Z,6.82
2022-11-17T01:34:18.945Z,7.01
2022-11-17T01:37:03.974Z,6.90
2022-11-17T01:39:32.475Z,6.96
2022-11-17T01:42:04.115Z,6.79
2022-11-17T01:45:00.699Z,6.77
2022-11-17T01:47:37.383Z,7.00
2022-11-17T01:50:09.246Z,7.00
2022-11-17T01:52:38.387Z,6.67
2022-11-17T01:55:08.139Z,6.77
2022-11-17T01:57:39.916Z,6.91
2022-11-17T02:00:10.100Z,6.95
2022-11-17T02:02:40.356Z,6.84
2022-11-17T02:05:18.618Z,6.79
2022-11-17T02:07:46.236Z,6.82
2022-11-17T02:10:13.780Z,6.88
2022-11-17T02:12:41.920Z,6.83
2022-11-17T02:15:10.056Z,7.02
2022-11-17T02:17:41.335Z,6.82
2022-11-17T02:20:11.716Z,6.75
2022-11-17T02:23:11.355Z,6.69
2022-11-17T02:26:04.362Z,6.82
2022-11-17T02:28:34.231Z,6.77
2022-11-17T02:31:12.022Z,6.88
2022-11-17T02:33:47.061Z,6.55
2022-11-17T02:36:18.887Z,6.72
2022-11-17T02:38:54.273Z,6.65
2022-11-17T02:41:25.955Z,6.89
2022-11-17T02:44:05.558Z,6.88
2022-11-17T02:46:41.812Z,6.72
2022-11-17T02:49:15.066Z,6.72
2022-11-17T02:51:43.784Z,6.80
2022-11-17T02:54:12.417Z,6.84
2022-11-17T02:56:43.672Z,6.91
2022-11-17T02:59:14.270Z,6.72
2022-11-17T03:01:57.392Z,6.68
2022-11-17T03:04:31.543Z,6.62
2022-11-17T03:07:14.933Z,6.64
2022-11-17T03:09:48.292Z,6.68
2022-11-17T03:12:22.504Z,6.62
2022-11-17T03:15:02.970Z,6.66
2022-11-17T03:17:33.923Z,6.69
2022-11-17T03:20:05.179Z,6.61
2022-11-17T03:22:36.324Z,6.44
2022-11-17T03:25:05.915Z,6.56
2022-11-17T03:27:36.536Z,6.65
2022-11-17T03:30:08.191Z,6.57
2022-11-17T03:32:38.364Z,6.52
2022-11-17T03:35:08.611Z,6.56
2022-11-17T03:37:38.226Z,6.50
2022-11-17T03:40:10.024Z,6.57
2022-11-17T03:42:39.364Z,6.30
2022-11-17T03:45:12.368Z,6.49
2022-11-17T03:47:40.108Z,6.41
2022-11-17T03:50:11.968Z,6.36
2022-11-17T03:52:39.751Z,6.48
2022-11-17T03:55:09.079Z,6.33
2022-11-17T03:57:41.392Z,6.18
2022-11-17T04:00:11.871Z,6.19
2022-11-17T04:02:41.608Z,6.28
2022-11-17T04:05:09.526Z,6.27
2022-11-17T04:07:40.031Z,6.53
2022-11-17T04:10:09.259Z,6.43
2022-11-17T04:12:54.528Z,6.22
2022-11-17T04:15:52.385Z,6.37
2022-11-17T04:18:20.128Z,6.42
2022-11-17T04:20:51.337Z,6.33
2022-11-17T04:23:19.061Z,6.31
2022-11-17T04:26:06.023Z,6.40
2022-11-17T04:28:38.677Z,6.38
2022-11-17T04:31:10.180Z,6.37
2022-11-17T04:33:38.981Z,6.31
2022-11-17T04:36:07.370Z,6.09
2022-11-17T04:38:34.872Z,6.14
2022-11-17T04:41:21.519Z,6.36
2022-11-17T04:43:48.960Z,6.29
2022-11-17T04:46:18.775Z,6.21
2022-11-17T04:48:48.481Z,6.13
2022-11-17T04:51:16.255Z,6.35
2022-11-17T04:53:44.196Z,6.23
2022-11-17T04:56:11.884Z,6.06
2022-11-17T04:58:39.348Z,6.28
2022-11-17T05:01:14.061Z,6.22
2022-11-17T05:03:44.521Z,6.33
2022-11-17T05:06:13.389Z,6.20
2022-11-17T05:08:41.164Z,6.02
2022-11-17T05:11:26.991Z,6.01
2022-11-17T05:13:54.912Z,5.85
2022-11-17T05:16:40.867Z,5.93
2022-11-17T05:19:12.482Z,6.04
2022-11-17T05:21:40.156Z,5.93
2022-11-17T05:24:08.356Z,5.91
2022-11-17T05:26:38.091Z,5.96
2022-11-17T05:29:07.117Z,6.06
2022-11-17T05:31:35.311Z,6.02
2022-11-17T05:34:02.997Z,6.00
2022-11-17T05:36:32.031Z,6.02
2022-11-17T05:38:59.693Z,6.03
2022-11-17T05:41:28.691Z,5.90
2022-11-17T05:43:56.847Z,6.00
2022-11-17T05:46:24.595Z,6.10
2022-11-17T05:48:53.267Z,5.94
2022-11-17T05:51:22.623Z,5.96
2022-11-17T05:53:51.619Z,6.00
2022-11-17T05:56:38.130Z,6.11
2022-11-17T05:59:15.861Z,5.98
2022-11-17T06:01:45.215Z,5.84
2022-11-17T06:04:16.262Z,5.98
2022-11-17T06:06:44.580Z,5.98
2022-11-17T06:09:13.422Z,5.93
2022-11-17T06:11:40.908Z,6.02
2022-11-17T06:14:08.417Z,5.75
2022-11-17T06:16:38.408Z,6.04
2022-11-17T06:19:09.510Z,5.85
2022-11-17T06:22:04.609Z,5.81
2022-11-17T06:24:26.420Z,5.91
2022-11-17T06:26:53.961Z,5.77
2022-11-17T06:29:21.451Z,5.66
2022-11-17T06:31:49.015Z,5.64
2022-11-17T06:34:16.681Z,5.77
2022-11-17T06:36:44.143Z,5.83
2022-11-17T06:39:11.624Z,5.89
2022-11-17T06:41:40.650Z,6.03
2022-11-17T06:44:08.131Z,5.89
2022-11-17T06:46:38.888Z,6.14
2022-11-17T06:49:07.138Z,5.91
2022-11-17T06:51:34.756Z,5.74
2022-11-17T06:54:05.243Z,5.75
2022-11-17T06:56:32.688Z,5.93
2022-11-17T06:59:01.468Z,5.67
2022-11-17T07:01:28.939Z,5.66
2022-11-17T07:03:56.394Z,5.76
2022-11-17T07:06:23.843Z,5.74
2022-11-17T07:08:51.698Z,5.65
2022-11-17T07:11:19.970Z,5.61
2022-11-17T07:13:47.434Z,5.52
2022-11-17T07:16:23.173Z,5.70
2022-11-17T07:18:51.576Z,5.86
2022-11-17T07:21:19.112Z,5.74
2022-11-17T07:23:46.527Z,5.68
2022-11-17T07:26:14.265Z,5.60
2022-11-17T07:28:41.826Z,5.68
2022-11-17T07:31:10.014Z,5.60
2022-11-17T07:33:38.817Z,5.70
2022-11-17T07:36:09.338Z,5.82
2022-11-17T07:38:37.637Z,5.86
2022-11-17T07:41:06.668Z,5.61
2022-11-17T07:43:34.987Z,5.69
2022-11-17T07:46:04.898Z,5.71
2022-11-17T07:48:33.390Z,5.69
2022-11-17T07:51:03.034Z,5.72
2022-11-17T07:53:32.319Z,5.66
2022-11-17T07:56:03.969Z,5.64
2022-11-17T07:58:31.605Z,5.68
2022-11-17T08:00:59.250Z,5.60
2022-11-17T08:03:26.787Z,5.62
2022-11-17T08:05:54.622Z,5.70
2022-11-17T08:08:23.522Z,5.58
2022-11-17T08:10:50.951Z,5.66
2022-11-17T08:13:18.383Z,5.69
2022-11-17T08:15:45.862Z,5.78
2022-11-17T08:18:13.293Z,5.62
2022-11-17T08:20:40.767Z,5.61
2022-11-17T08:23:08.770Z,5.58
2022-11-17T08:25:37.550Z,5.78
2022-11-17T08:28:05.343Z,5.82
2022-11-17T08:30:34.761Z,5.81
2022-11-17T08:33:02.392Z,5.82
2022-11-17T08:35:35.856Z,5.67
2022-11-17T08:38:04.721Z,5.64
2022-11-17T08:40:32.303Z,5.61
2022-11-17T08:43:01.783Z,5.82
2022-11-17T08:45:29.629Z,5.70
2022-11-17T08:47:57.436Z,5.84
2022-11-17T08:50:25.163Z,5.63
2022-11-17T08:52:53.046Z,5.66
2022-11-17T08:55:20.667Z,5.73
2022-11-17T08:57:48.183Z,5.81
2022-11-17T09:00:20.476Z,5.66
2022-11-17T09:02:47.968Z,5.66
2022-11-17T09:05:15.531Z,5.77
2022-11-17T09:07:43.116Z,5.74
2022-11-17T09:10:11.273Z,5.70
2022-11-17T09:12:38.862Z,5.73
2022-11-17T09:15:07.258Z,5.76
2022-11-17T09:17:36.215Z,5.69
2022-11-17T09:20:03.749Z,5.68
2022-11-17T09:22:31.198Z,5.69
2022-11-17T09:24:58.631Z,5.67
2022-11-17T09:27:26.118Z,5.86
2022-11-17T09:29:53.595Z,5.75
2022-11-17T09:32:21.043Z,5.90
2022-11-17T09:34:49.911Z,5.86
2022-11-17T09:37:17.374Z,5.75
2022-11-17T09:39:44.943Z,5.94
2022-11-17T09:42:14.387Z,5.85
2022-11-17T09:44:45.210Z,5.92
2022-11-17T09:47:20.822Z,5.91
2022-11-17T09:49:59.073Z,5.81
2022-11-17T09:52:29.538Z,5.86
2022-11-17T09:54:58.389Z,5.64
2022-11-17T09:57:30.686Z,5.86
2022-11-17T10:00:05.899Z,5.91
2022-11-17T10:02:33.634Z,5.88
2022-11-17T10:05:02.611Z,5.97
2022-11-17T10:07:31.638Z,5.95
2022-11-17T10:09:59.515Z,5.87
2022-11-17T10:12:33.402Z,5.98
2022-11-17T10:15:18.198Z,6.03
2022-11-17T10:17:45.703Z,5.85
2022-11-17T10:20:17.438Z,5.97
2022-11-17T10:22:45.292Z,5.88
2022-11-17T10:25:23.003Z,5.80
2022-11-17T10:27:53.789Z,5.94
2022-11-17T10:30:23.331Z,5.87
2022-11-17T10:32:52.950Z,5.77
2022-11-17T10:35:23.722Z,5.81
2022-11-17T10:37:56.319Z,5.89
2022-11-17T10:40:26.093Z,5.81
2022-11-17T10:43:06.649Z,5.72
2022-11-17T10:45:34.418Z,5.85
2022-11-17T10:48:19.888Z,5.81
2022-11-17T10:50:54.316Z,5.79
2022-11-17T10:53:28.791Z,5.86
2022-11-17T10:55:59.235Z,5.90
2022-11-17T10:58:28.478Z,5.91
2022-11-17T11:00:57.267Z,6.06
2022-11-17T11:03:26.329Z,5.83
2022-11-17T11:06:00.853Z,5.90
2022-11-17T11:08:33.366Z,5.84
2022-11-17T11:11:01.223Z,5.87
2022-11-17T11:13:33.670Z,5.80
2022-11-17T11:16:01.142Z,6.00
2022-11-17T11:18:30.294Z,5.81
2022-11-17T11:21:08.626Z,5.80
2022-11-17T11:23:42.462Z,5.81
2022-11-17T11:26:20.607Z,5.93
2022-11-17T11:28:59.812Z,5.90
2022-11-17T11:31:35.783Z,5.88
2022-11-17T11:34:10.655Z,5.81
2022-11-17T11:36:43.026Z,5.73
2022-11-17T11:39:20.572Z,5.76
2022-11-17T11:42:07.511Z,5.85
2022-11-17T11:44:44.710Z,5.96
2022-11-17T11:47:18.767Z,5.96
2022-11-17T11:49:50.427Z,5.82
2022-11-17T11:52:22.319Z,6.00
2022-11-17T11:54:52.395Z,6.06
2022-11-17T11:57:22.698Z,5.97
2022-11-17T11:59:53.519Z,5.85
2022-11-17T12:02:29.147Z,5.80
2022-11-17T12:05:02.215Z,5.83
2022-11-17T12:07:37.131Z,5.72
2022-11-17T12:10:07.632Z,5.82
2022-11-17T12:12:37.790Z,5.93
2022-11-17T12:15:33.322Z,5.93
2022-11-17T12:18:03.688Z,5.99
2022-11-17T12:20:59.023Z,5.99
2022-11-17T12:24:02.052Z,6.04
2022-11-17T12:26:30.808Z,5.97
2022-11-17T12:29:30.563Z,5.94
2022-11-17T12:31:59.375Z,5.99
2022-11-17T12:34:28.924Z,5.86
2022-11-17T12:37:16.160Z,5.94
2022-11-17T12:40:02.888Z,6.02
2022-11-17T12:42:31.212Z,5.94
2022-11-17T12:45:20.215Z,6.00
2022-11-17T12:47:59.420Z,5.99
2022-11-17T12:50:51.226Z,6.05
2022-11-17T12:53:35.244Z,6.10
2022-11-17T12:56:16.347Z,6.06
2022-11-17T12:58:53.720Z,5.87
2022-11-17T13:01:25.684Z,6.14
2022-11-17T13:03:56.097Z,6.14
2022-11-17T13:06:38.981Z,5.99
2022-11-17T13:09:08.520Z,5.89
2022-11-17T13:11:37.319Z,5.91
2022-11-17T13:14:09.573Z,5.79
2022-11-17T13:16:38.114Z,6.09
2022-11-17T13:19:05.650Z,6.05
2022-11-17T13:21:33.999Z,6.12
2022-11-17T13:24:01.456Z,6.06
2022-11-17T13:26:31.383Z,6.08
2022-11-17T13:29:05.813Z,5.99
2022-11-17T13:31:33.440Z,5.97
2022-11-17T13:34:05.379Z,6.00
2022-11-17T13:36:33.342Z,6.14
2022-11-17T13:39:01.439Z,6.23
2022-11-17T13:41:30.523Z,5.93
2022-11-17T13:43:58.293Z,5.92
2022-11-17T13:46:27.158Z,5.92
2022-11-17T13:48:54.618Z,6.15
2022-11-17T13:51:25.391Z,5.88
2022-11-17T13:53:55.239Z,5.88
2022-11-17T13:56:25.142Z,6.03
2022-11-17T13:58:53.058Z,5.90
2022-11-17T14:01:24.854Z,5.90
2022-11-17T14:03:53.659Z,6.10
2022-11-17T14:06:21.115Z,5.76
2022-11-17T14:09:05.329Z,5.83
2022-11-17T14:11:32.930Z,5.92
2022-11-17T14:14:01.198Z,5.88
2022-11-17T14:16:30.394Z,6.09
2022-11-17T14:19:05.171Z,5.88
2022-11-17T14:21:33.409Z,5.76
2022-11-17T14:24:03.937Z,5.94
2022-11-17T14:26:31.607Z,5.98
2022-11-17T14:29:02.140Z,5.72
2022-11-17T14:31:31.363Z,5.96
2022-11-17T14:33:59.674Z,5.94
2022-11-17T14:36:28.666Z,5.96
2022-11-17T14:38:56.151Z,5.86
2022-11-17T14:41:23.602Z,5.86
2022-11-17T14:43:51.323Z,6.02
2022-11-17T14:46:22.206Z,5.99
2022-11-17T14:48:49.704Z,5.87
2022-11-17T14:51:17.467Z,5.94
2022-11-17T14:53:46.896Z,5.99
2022-11-17T14:56:16.285Z,6.01
2022-11-17T14:58:43.722Z,5.80
2022-11-17T15:01:12.577Z,5.75
2022-11-17T15:03:40.159Z,5.83
2022-11-17T15:06:09.323Z,5.67
2022-11-17T15:08:36.884Z,5.83
2022-11-17T15:11:06.438Z,5.77
2022-11-17T15:13:33.922Z,5.80
2022-11-17T15:16:02.857Z,5.92
2022-11-17T15:18:30.585Z,5.89
2022-11-17T15:21:02.194Z,6.01
2022-11-17T15:23:30.046Z,5.88
2022-11-17T15:25:57.539Z,6.00
2022-11-17T15:28:30.482Z,5.99
2022-11-17T15:30:58.263Z,5.93
2022-11-17T15:33:26.072Z,5.82
2022-11-17T15:36:01.582Z,5.88
2022-11-17T15:38:29.184Z,5.74
2022-11-17T15:40:57.854Z,5.98
2022-11-17T15:43:28.826Z,5.85
2022-11-17T15:46:02.630Z,5.76
2022-11-17T15:48:31.434Z,6.01
2022-11-17T15:50:59.577Z,5.95
2022-11-17T15:53:31.983Z,5.86
2022-11-17T15:56:06.254Z,5.89
2022-11-17T15:58:36.689Z,5.84
2022-11-17T16:01:11.695Z,5.82
2022-11-17T16:03:39.447Z,5.79
2022-11-17T16:06:07.347Z,5.76
2022-11-17T16:08:34.883Z,5.92
2022-11-17T16:11:02.380Z,5.94
2022-11-17T16:13:29.859Z,5.83
2022-11-17T16:15:58.703Z,5.81
2022-11-17T16:18:26.304Z,5.84
2022-11-17T16:20:53.891Z,5.79
2022-11-17T16:23:21.486Z,5.79
2022-11-17T16:25:49.625Z,5.91
2022-11-17T16:28:17.966Z,5.67
2022-11-17T16:30:45.715Z,5.82
2022-11-17T16:33:16.350Z,5.89
2022-11-17T16:35:45.322Z,5.90
2022-11-17T16:38:14.971Z,5.91
2022-11-17T16:40:42.510Z,5.98
2022-11-17T16:43:11.486Z,5.84
2022-11-17T16:45:43.050Z,5.78
2022-11-17T16:48:10.571Z,5.74
2022-11-17T16:50:40.645Z,5.83
2022-11-17T16:53:08.126Z,5.75
2022-11-17T16:55:36.212Z,5.80
2022-11-17T16:58:04.083Z,5.64
2022-11-17T17:00:31.967Z,5.70
2022-11-17T17:02:59.559Z,5.71
2022-11-17T17:05:29.235Z,5.65
2022-11-17T17:07:58.080Z,5.65
2022-11-17T17:10:25.560Z,5.70
2022-11-17T17:12:53.094Z,5.75
2022-11-17T17:15:20.590Z,5.69
2022-11-17T17:17:48.043Z,5.66
2022-11-17T17:20:16.010Z,5.80
2022-11-17T17:22:43.435Z,5.84
2022-11-17T17:25:12.392Z,5.95
2022-11-17T17:27:39.831Z,5.59
2022-11-17T17:30:08.109Z,5.96
2022-11-17T17:32:35.539Z,5.71
2022-11-17T17:35:02.979Z,5.70
2022-11-17T17:37:32.662Z,5.78
2022-11-17T17:40:00.107Z,5.81
2022-11-17T17:42:28.879Z,5.85
2022-11-17T17:44:56.346Z,5.90
2022-11-17T17:47:23.890Z,5.85
2022-11-17T17:49:51.373Z,5.98
2022-11-17T17:52:19.026Z,5.72
2022-11-17T17:54:46.462Z,5.84
2022-11-17T17:57:13.893Z,5.84
2022-11-17T17:59:42.667Z,5.86
2022-11-17T18:02:10.146Z,5.85
2022-11-17T18:04:37.998Z,5.77
2022-11-17T18:07:05.790Z,5.77
2022-11-17T18:09:33.691Z,5.96
2022-11-17T18:12:01.149Z,5.79
2022-11-17T18:14:28.803Z,5.91
2022-11-17T18:16:58.505Z,5.86
2022-11-17T18:19:31.527Z,5.94
2022-11-17T18:22:03.915Z,5.77
2022-11-17T18:24:32.285Z,5.83
2022-11-17T18:26:59.757Z,5.72
2022-11-17T18:29:27.300Z,5.63
2022-11-17T18:31:54.799Z,5.64
2022-11-17T18:34:25.194Z,5.75
2022-11-17T18:36:55.340Z,5.54
2022-11-17T18:39:23.201Z,5.78
2022-11-17T18:41:50.686Z,5.70
2022-11-17T18:44:19.498Z,5.77
2022-11-17T18:46:47.166Z,5.88
2022-11-17T18:49:15.070Z,5.91
2022-11-17T18:51:44.032Z,5.76
2022-11-17T18:54:11.887Z,5.65
2022-11-17T18:56:39.807Z,5.71
2022-11-17T18:59:11.255Z,5.64
2022-11-17T19:01:39.789Z,5.74
2022-11-17T19:04:07.696Z,5.95
2022-11-17T19:06:35.536Z,5.55
2022-11-17T19:09:04.618Z,5.70
2022-11-17T19:11:33.455Z,5.58
2022-11-17T19:14:03.129Z,5.62
2022-11-17T19:16:31.710Z,5.58
2022-11-17T19:19:00.140Z,5.63
2022-11-17T19:21:28.723Z,5.54
2022-11-17T19:23:58.229Z,5.53
2022-11-17T19:26:28.281Z,5.35
2022-11-17T19:28:56.774Z,5.69
2022-11-17T19:31:24.534Z,5.56
2022-11-17T19:33:52.273Z,5.87
2022-11-17T19:36:21.390Z,5.82
2022-11-17T19:38:49.665Z,5.99
2022-11-17T19:41:18.792Z,5.65
2022-11-17T19:43:47.833Z,5.94
2022-11-17T19:46:16.743Z,5.38
2022-11-17T19:48:44.655Z,5.33
2022-11-17T19:51:14.813Z,5.57
2022-11-17T19:53:42.501Z,5.42
2022-11-17T19:56:10.096Z,5.58
2022-11-17T19:58:37.573Z,5.66
2022-11-17T20:01:11.090Z,5.55
2022-11-17T20:03:38.727Z,5.67
2022-11-17T20:06:06.882Z,5.70
2022-11-17T20:08:34.538Z,5.81
2022-11-17T20:11:06.742Z,5.54
2022-11-17T20:13:34.449Z,5.76
2022-11-17T20:16:07.441Z,5.66
2022-11-17T20:18:39.222Z,5.63
2022-11-17T20:21:07.365Z,5.67
2022-11-17T20:23:35.396Z,5.91
2022-11-17T20:26:06.106Z,5.81
2022-11-17T20:28:34.169Z,5.64
2022-11-17T20:31:06.699Z,5.45
2022-11-17T20:33:34.256Z,5.66
2022-11-17T20:36:03.846Z,5.75
2022-11-17T20:38:31.787Z,5.58
2022-11-17T20:40:59.835Z,5.87
2022-11-17T20:43:27.906Z,5.77
2022-11-17T20:45:55.652Z,5.69
2022-11-17T20:48:23.632Z,5.79
2022-11-17T20:50:58.195Z,5.83
2022-11-17T20:53:27.539Z,5.61
2022-11-17T20:55:56.223Z,5.64
2022-11-17T20:58:24.302Z,5.64
2022-11-17T21:00:52.128Z,5.66
2022-11-17T21:03:20.062Z,5.46
2022-11-17T21:05:58.467Z,5.35
2022-11-17T21:08:30.603Z,5.78
2022-11-17T21:10:58.995Z,5.59
2022-11-17T21:13:26.667Z,5.68
2022-11-17T21:16:08.203Z,5.63
2022-11-17T21:18:36.815Z,5.51
2022-11-17T21:21:08.556Z,5.36
2022-11-17T21:23:37.874Z,5.70
2022-11-17T21:26:06.081Z,5.58
2022-11-17T21:28:33.566Z,5.68
2022-11-17T21:31:05.367Z,5.35
2022-11-17T21:33:32.981Z,5.71
2022-11-17T21:36:03.671Z,5.59
2022-11-17T21:38:31.400Z,5.66
2022-11-17T21:41:03.747Z,5.52
2022-11-17T21:43:31.362Z,5.52
2022-11-17T21:46:02.122Z,5.58
2022-11-17T21:48:29.807Z,5.46
2022-11-17T21:50:57.462Z,5.62
2022-11-17T21:53:24.935Z,5.64
2022-11-17T21:55:52.408Z,5.53
2022-11-17T21:58:21.191Z,5.49
2022-11-17T22:00:48.650Z,5.28
2022-11-17T22:03:16.165Z,5.60
2022-11-17T22:05:43.603Z,5.48
2022-11-17T22:08:11.180Z,5.33
2022-11-17T22:10:38.700Z,5.55
2022-11-17T22:13:08.211Z,5.34
2022-11-17T22:15:37.008Z,5.44
2022-11-17T22:18:04.578Z,5.33
2022-11-17T22:20:32.015Z,5.27
2022-11-17T22:22:59.459Z,5.50
2022-11-17T22:28:14.640Z,5.36
2022-11-17T22:30:43.425Z,5.41
2022-11-17T22:33:10.846Z,5.46
2022-11-17T22:35:38.382Z,5.27
2022-11-17T22:38:05.861Z,5.44
2022-11-17T22:40:36.411Z,5.16
2022-11-17T22:43:04.736Z,5.17
2022-11-17T22:45:32.808Z,5.45
2022-11-17T22:48:02.517Z,5.14
2022-11-17T22:50:29.965Z,5.01
2022-11-17T22:52:57.462Z,5.12
2022-11-17T22:55:24.942Z,5.26
2022-11-17T22:57:52.436Z,5.20
2022-11-17T23:00:21.130Z,5.20
2022-11-17T23:02:48.581Z,5.45
2022-11-17T23:05:17.432Z,5.11
2022-11-17T23:07:45.096Z,5.27
2022-11-17T23:10:13.011Z,5.06
2022-11-17T23:12:40.475Z,5.30
2022-11-17T23:15:09.060Z,5.53
2022-11-17T23:17:36.692Z,5.41
2022-11-17T23:20:04.556Z,5.32
2022-11-17T23:22:33.909Z,5.36
2022-11-17T23:25:01.365Z,5.27
2022-11-17T23:27:28.814Z,5.20
2022-11-17T23:29:56.287Z,5.21
2022-11-17T23:32:23.803Z,4.99
2022-11-17T23:34:51.294Z,5.07
2022-11-17T23:37:19.347Z,4.94
2022-11-17T23:39:48.149Z,4.96
2022-11-17T23:42:15.605Z,5.27
2022-11-17T23:44:43.039Z,5.30
2022-11-17T23:47:10.488Z,5.30
2022-11-17T23:49:37.943Z,5.17
2022-11-17T23:52:05.618Z,5.12
2022-11-17T23:54:33.271Z,5.14
2022-11-17T23:57:02.043Z,4.88
2022-11-17T23:59:29.549Z,4.90
